createdAt,value
2022-11-28T00:00:42.181Z,24.20
2022-11-28T00:01:42.192Z,21.90
2022-11-28T00:02:42.231Z,22.40
2022-11-28T00:03:42.281Z,19.90
2022-11-28T00:04:42.421Z,19.80
2022-11-28T00:05:46.841Z,18.70
2022-11-28T00:06:42.128Z,20.10
2022-11-28T00:07:42.274Z,22.90
2022-11-28T00:08:42.113Z,19.80
2022-11-28T00:09:42.094Z,19.60
2022-11-28T00:10:42.085Z,22.00
2022-11-28T00:11:42.045Z,21.90
2022-11-28T00:12:42.043Z,20.50
2022-11-28T00:13:42.027Z,25.40
2022-11-28T00:14:42.278Z,24.70
2022-11-28T00:15:42.050Z,27.10
2022-11-28T00:16:42.004Z,21.70
2022-11-28T00:17:41.963Z,27.00
2022-11-28T00:18:41.947Z,23.90
2022-11-28T00:19:41.959Z,24.30
2022-11-28T00:20:41.937Z,23.30
2022-11-28T00:21:41.946Z,26.80
2022-11-28T00:22:41.929Z,27.00
2022-11-28T00:23:41.913Z,21.40
2022-11-28T00:24:42.176Z,25.00
2022-11-28T00:25:41.898Z,24.50
2022-11-28T00:26:41.903Z,25.00
2022-11-28T00:27:41.888Z,24.00
2022-11-28T00:28:41.830Z,24.20
2022-11-28T00:29:41.833Z,24.50
2022-11-28T00:30:41.832Z,24.20
2022-11-28T00:31:41.928Z,24.00
2022-11-28T00:32:41.790Z,25.10
2022-11-28T00:33:41.773Z,23.90
2022-11-28T00:34:42.068Z,24.70
2022-11-28T00:35:41.759Z,25.00
2022-11-28T00:36:41.739Z,21.90
2022-11-28T00:37:41.721Z,25.60
2022-11-28T00:38:41.709Z,26.00
2022-11-28T00:39:41.737Z,23.00
2022-11-28T00:40:41.673Z,23.90
2022-11-28T00:42:53.322Z,26.30
2022-11-28T00:43:54.311Z,24.10
2022-11-28T00:44:54.299Z,22.10
2022-11-28T00:45:54.333Z,22.50
2022-11-28T00:46:54.327Z,21.30
2022-11-28T00:47:54.302Z,25.50
2022-11-28T00:48:54.270Z,22.70
2022-11-28T00:49:54.280Z,23.80
2022-11-28T00:50:54.219Z,27.70
2022-11-28T00:51:54.223Z,23.20
2022-11-28T00:52:54.235Z,21.90
2022-11-28T00:53:54.212Z,22.80
2022-11-28T00:54:54.170Z,25.30
2022-11-28T00:55:54.164Z,28.30
2022-11-28T00:56:54.158Z,26.40
2022-11-28T00:57:54.167Z,22.60
2022-11-28T00:58:54.123Z,22.80
2022-11-28T00:59:54.138Z,23.30
2022-11-28T01:00:54.132Z,24.40
2022-11-28T01:01:54.149Z,25.60
2022-11-28T01:02:54.080Z,22.70
2022-11-28T01:03:54.088Z,24.10
2022-11-28T01:04:54.058Z,25.00
2022-11-28T01:05:54.029Z,26.50
2022-11-28T01:06:54.045Z,23.10
2022-11-28T01:07:54.062Z,25.20
2022-11-28T01:08:54.002Z,26.30
2022-11-28T01:09:53.991Z,24.30
2022-11-28T01:10:53.996Z,22.80
2022-11-28T01:11:53.997Z,23.20
2022-11-28T01:12:53.969Z,22.80
2022-11-28T01:13:53.930Z,25.10
2022-11-28T01:14:53.916Z,27.60
2022-11-28T01:15:54.108Z,25.10
2022-11-28T01:16:53.990Z,26.30
2022-11-28T01:17:53.989Z,24.30
2022-11-28T01:18:53.881Z,25.00
2022-11-28T01:19:53.866Z,25.50
2022-11-28T01:20:53.855Z,21.60
2022-11-28T01:21:53.877Z,25.30
2022-11-28T01:22:53.807Z,27.90
2022-11-28T01:23:53.838Z,25.30
2022-11-28T01:24:53.797Z,23.30
2022-11-28T01:25:53.838Z,25.70
2022-11-28T01:26:53.779Z,25.20
2022-11-28T01:27:53.795Z,23.20
2022-11-28T01:28:53.768Z,26.00
2022-11-28T01:29:53.756Z,24.20
2022-11-28T01:30:53.720Z,23.50
2022-11-28T01:31:53.799Z,22.80
2022-11-28T01:32:53.757Z,20.70
2022-11-28T01:33:53.725Z,23.90
2022-11-28T01:34:53.686Z,22.30
2022-11-28T01:35:53.657Z,23.50
2022-11-28T01:36:53.701Z,25.20
2022-11-28T01:37:53.643Z,22.70
2022-11-28T01:38:53.641Z,23.40
2022-11-28T01:39:53.660Z,24.10
2022-11-28T01:40:53.648Z,21.30
2022-11-28T01:41:53.621Z,27.80
2022-11-28T01:42:53.607Z,27.00
2022-11-28T01:43:53.546Z,24.00
2022-11-28T01:44:53.549Z,23.50
2022-11-28T01:45:53.518Z,23.80
2022-11-28T01:46:53.587Z,23.90
2022-11-28T01:47:53.491Z,19.50
2022-11-28T01:48:53.500Z,24.70
2022-11-28T01:49:53.478Z,25.00
2022-11-28T01:50:53.451Z,22.40
2022-11-28T01:51:53.506Z,26.50
2022-11-28T01:52:53.413Z,21.90
2022-11-28T01:53:53.441Z,24.00
2022-11-28T01:54:53.420Z,24.60
2022-11-28T01:55:53.411Z,23.00
2022-11-28T01:56:53.359Z,19.90
2022-11-28T01:57:53.423Z,25.10
2022-11-28T01:58:53.389Z,21.60
2022-11-28T01:59:53.372Z,17.40
2022-11-28T02:00:53.404Z,21.10
2022-11-28T02:01:53.365Z,20.90
2022-11-28T02:02:53.307Z,23.10
2022-11-28T02:03:53.376Z,21.20
2022-11-28T02:04:53.258Z,21.30
2022-11-28T02:05:53.277Z,22.60
2022-11-28T02:06:53.285Z,23.40
2022-11-28T02:07:53.349Z,22.00
2022-11-28T02:08:53.345Z,19.70
2022-11-28T02:09:53.253Z,20.10
2022-11-28T02:10:53.258Z,23.20
2022-11-28T02:11:53.249Z,18.70
2022-11-28T02:12:53.205Z,22.80
2022-11-28T02:13:53.158Z,20.60
2022-11-28T02:14:53.157Z,21.10
2022-11-28T02:15:53.230Z,22.30
2022-11-28T02:16:53.190Z,23.10
2022-11-28T02:17:53.203Z,20.40
2022-11-28T02:18:53.091Z,18.70
2022-11-28T02:19:53.135Z,20.70
2022-11-28T02:20:53.078Z,21.30
2022-11-28T02:21:53.120Z,20.60
2022-11-28T02:22:53.053Z,21.50
2022-11-28T02:23:53.046Z,22.90
2022-11-28T02:24:52.994Z,22.40
2022-11-28T02:25:53.006Z,21.10
2022-11-28T02:26:52.978Z,22.90
2022-11-28T02:27:52.987Z,21.80
2022-11-28T02:28:53.054Z,19.80
2022-11-28T02:29:52.938Z,21.70
2022-11-28T02:30:52.925Z,19.80
2022-11-28T02:31:53.012Z,22.10
2022-11-28T02:32:52.904Z,18.80
2022-11-28T02:33:52.937Z,18.40
2022-11-28T02:34:53.072Z,20.90
2022-11-28T02:35:52.862Z,19.90
2022-11-28T02:36:52.846Z,20.40
2022-11-28T02:37:52.898Z,22.40
2022-11-28T02:38:52.838Z,20.20
2022-11-28T02:39:52.828Z,22.70
2022-11-28T02:40:52.809Z,16.40
2022-11-28T02:41:52.810Z,19.70
2022-11-28T02:42:52.780Z,19.90
2022-11-28T02:43:52.778Z,20.50
2022-11-28T02:44:52.774Z,20.90
2022-11-28T02:45:52.737Z,20.30
2022-11-28T02:46:52.754Z,19.80
2022-11-28T02:47:52.762Z,20.50
2022-11-28T02:48:52.714Z,20.00
2022-11-28T02:49:52.696Z,21.20
2022-11-28T02:50:52.661Z,20.00
2022-11-28T02:51:52.753Z,22.50
2022-11-28T02:52:52.650Z,17.90
2022-11-28T02:53:52.653Z,20.80
2022-11-28T02:54:52.639Z,22.40
2022-11-28T02:55:52.655Z,18.40
2022-11-28T02:56:52.623Z,19.30
2022-11-28T02:57:52.650Z,19.50
2022-11-28T02:58:52.602Z,20.10
2022-11-28T02:59:52.561Z,21.40
2022-11-28T03:00:52.603Z,20.30
2022-11-28T03:01:52.563Z,22.50
2022-11-28T03:02:52.534Z,22.50
2022-11-28T03:03:52.538Z,19.60
2022-11-28T03:04:52.534Z,22.80
2022-11-28T03:05:52.488Z,18.60
2022-11-28T03:06:52.463Z,21.00
2022-11-28T03:07:52.531Z,18.50
2022-11-28T03:08:52.427Z,23.90
2022-11-28T03:09:52.459Z,20.90
2022-11-28T03:10:52.415Z,18.20
2022-11-28T03:11:52.422Z,21.70
2022-11-28T03:12:52.393Z,19.70
2022-11-28T03:13:52.410Z,18.60
2022-11-28T03:14:52.373Z,22.20
2022-11-28T03:15:52.429Z,19.50
2022-11-28T03:16:52.348Z,23.00
2022-11-28T03:17:52.355Z,22.70
2022-11-28T03:18:52.338Z,20.20
2022-11-28T03:19:52.333Z,21.50
2022-11-28T03:20:52.352Z,21.90
2022-11-28T03:21:52.296Z,25.00
2022-11-28T03:22:52.283Z,20.90
2022-11-28T03:23:52.271Z,22.20
2022-11-28T03:24:52.251Z,21.10
2022-11-28T03:25:52.340Z,25.30
2022-11-28T03:26:52.204Z,22.40
2022-11-28T03:27:52.200Z,22.80
2022-11-28T03:28:52.254Z,19.50
2022-11-28T03:29:52.179Z,23.00
2022-11-28T03:30:52.217Z,22.20
2022-11-28T03:31:52.212Z,29.00
2022-11-28T03:32:52.122Z,22.30
2022-11-28T03:33:52.164Z,20.10
2022-11-28T03:34:52.182Z,22.40
2022-11-28T03:35:52.138Z,22.70
2022-11-28T03:36:52.080Z,21.70
2022-11-28T03:37:52.108Z,22.40
2022-11-28T03:38:52.101Z,21.80
2022-11-28T03:39:52.050Z,21.60
2022-11-28T03:40:52.079Z,27.50
2022-11-28T03:41:52.046Z,22.20
2022-11-28T03:42:52.028Z,21.10
2022-11-28T03:43:52.015Z,20.40
2022-11-28T03:44:52.034Z,21.10
2022-11-28T03:45:52.012Z,21.20
2022-11-28T03:46:52.035Z,23.90
2022-11-28T03:47:51.959Z,21.20
2022-11-28T03:48:52.030Z,25.90
2022-11-28T03:49:51.899Z,22.60
2022-11-28T03:50:51.908Z,22.20
2022-11-28T03:51:51.898Z,24.00
2022-11-28T03:52:51.866Z,24.80
2022-11-28T03:53:51.900Z,18.80
2022-11-28T03:54:51.876Z,26.50
2022-11-28T03:55:51.969Z,23.40
2022-11-28T03:56:51.846Z,25.50
2022-11-28T03:57:51.892Z,23.90
2022-11-28T03:58:51.976Z,27.20
2022-11-28T03:59:51.815Z,22.40
2022-11-28T04:00:51.845Z,24.90
2022-11-28T04:01:51.835Z,24.70
2022-11-28T04:02:51.794Z,19.30
2022-11-28T04:03:51.755Z,22.80
2022-11-28T04:04:51.764Z,26.00
2022-11-28T04:05:51.742Z,23.80
2022-11-28T04:06:51.688Z,24.70
2022-11-28T04:07:51.743Z,23.40
2022-11-28T04:08:51.715Z,23.90
2022-11-28T04:09:51.697Z,24.90
2022-11-28T04:10:51.770Z,24.00
2022-11-28T04:11:51.635Z,26.20
2022-11-28T04:12:51.652Z,26.20
2022-11-28T04:13:51.604Z,23.50
2022-11-28T04:14:51.585Z,25.30
2022-11-28T04:15:51.627Z,25.90
2022-11-28T04:16:53.951Z,21.90
2022-11-28T04:17:51.588Z,23.10
2022-11-28T04:18:51.554Z,23.00
2022-11-28T04:19:51.583Z,24.40
2022-11-28T04:20:51.574Z,23.90
2022-11-28T04:21:51.525Z,26.10
2022-11-28T04:22:51.478Z,25.50
2022-11-28T04:23:51.564Z,26.10
2022-11-28T04:24:51.496Z,21.50
2022-11-28T04:25:51.473Z,22.40
2022-11-28T04:26:51.429Z,24.20
2022-11-28T04:27:51.474Z,23.60
2022-11-28T04:28:51.417Z,27.70
2022-11-28T04:29:51.437Z,21.40
2022-11-28T04:30:51.383Z,23.50
2022-11-28T04:31:51.492Z,23.20
2022-11-28T04:32:51.423Z,26.40
2022-11-28T04:33:51.459Z,23.30
2022-11-28T04:34:51.333Z,23.10
2022-11-28T04:35:51.410Z,24.00
2022-11-28T04:36:51.367Z,26.30
2022-11-28T04:37:51.289Z,25.80
2022-11-28T04:38:51.296Z,26.50
2022-11-28T04:39:51.401Z,24.10
2022-11-28T04:40:51.307Z,27.50
2022-11-28T04:41:51.255Z,24.40
2022-11-28T04:42:53.000Z,23.30
2022-11-28T04:43:51.199Z,24.00
2022-11-28T04:44:51.269Z,25.40
2022-11-28T04:45:51.313Z,27.30
2022-11-28T04:46:51.221Z,25.80
2022-11-28T04:47:51.270Z,25.20
2022-11-28T04:48:51.185Z,21.90
2022-11-28T04:49:51.135Z,20.90
2022-11-28T04:50:51.133Z,25.80
2022-11-28T04:51:51.138Z,25.10
2022-11-28T04:52:51.190Z,25.60
2022-11-28T04:53:51.106Z,25.00
2022-11-28T04:54:51.161Z,25.60
2022-11-28T04:55:51.209Z,23.20
2022-11-28T04:56:51.104Z,23.60
2022-11-28T04:57:56.920Z,22.90
2022-11-28T04:58:51.125Z,21.50
2022-11-28T04:59:51.093Z,23.20
2022-11-28T05:00:51.054Z,25.10
2022-11-28T05:01:51.046Z,21.40
2022-11-28T05:02:51.004Z,22.90
2022-11-28T05:03:50.943Z,23.70
2022-11-28T05:04:51.037Z,23.70
2022-11-28T05:05:51.048Z,23.60
2022-11-28T05:06:50.926Z,22.90
2022-11-28T05:07:51.042Z,22.30
2022-11-28T05:08:50.967Z,24.20
2022-11-28T05:09:50.885Z,22.00
2022-11-28T05:10:50.854Z,25.20
2022-11-28T05:11:50.863Z,24.60
2022-11-28T05:12:50.918Z,25.00
2022-11-28T05:13:50.922Z,28.60
2022-11-28T05:14:50.816Z,23.20
2022-11-28T05:15:50.835Z,21.00
2022-11-28T05:16:50.975Z,23.40
2022-11-28T05:17:50.850Z,25.00
2022-11-28T05:18:50.787Z,24.80
2022-11-28T05:19:50.842Z,26.40
2022-11-28T05:20:50.790Z,21.20
2022-11-28T05:21:50.742Z,25.20
2022-11-28T05:22:50.766Z,22.20
2022-11-28T05:23:50.771Z,24.20
2022-11-28T05:24:50.772Z,22.40
2022-11-28T05:25:50.738Z,20.70
2022-11-28T05:26:50.681Z,22.50
2022-11-28T05:27:50.771Z,23.10
2022-11-28T05:28:50.703Z,21.70
2022-11-28T05:29:52.398Z,22.00
2022-11-28T05:30:50.645Z,23.60
2022-11-28T05:31:50.787Z,21.40
2022-11-28T05:32:50.582Z,20.40
2022-11-28T05:33:50.711Z,21.60
2022-11-28T05:34:50.557Z,23.40
2022-11-28T05:35:50.638Z,24.20
2022-11-28T05:36:50.555Z,21.00
2022-11-28T05:37:50.525Z,22.40
2022-11-28T05:38:50.562Z,21.30
2022-11-28T05:39:50.511Z,23.40
2022-11-28T05:40:50.578Z,25.20
2022-11-28T05:41:50.535Z,23.60
2022-11-28T05:42:50.448Z,23.40
2022-11-28T05:43:50.456Z,22.90
2022-11-28T05:44:50.517Z,24.10
2022-11-28T05:45:50.452Z,24.00
2022-11-28T05:46:50.438Z,22.90
2022-11-28T05:47:50.393Z,22.30
2022-11-28T05:48:50.408Z,25.70
2022-11-28T05:49:50.369Z,23.10
2022-11-28T05:50:50.405Z,22.90
2022-11-28T05:51:50.448Z,21.90
2022-11-28T05:52:50.346Z,23.70
2022-11-28T05:53:50.343Z,24.70
2022-11-28T05:54:50.367Z,22.60
2022-11-28T05:55:50.316Z,22.40
2022-11-28T05:56:50.387Z,26.10
2022-11-28T05:57:50.457Z,23.00
2022-11-28T05:58:50.267Z,25.10
2022-11-28T05:59:50.355Z,24.50
2022-11-28T06:00:50.280Z,22.30
2022-11-28T06:01:50.326Z,19.80
2022-11-28T06:02:50.243Z,19.90
2022-11-28T06:03:50.215Z,24.30
2022-11-28T06:04:50.250Z,24.50
2022-11-28T06:05:50.150Z,22.70
2022-11-28T06:06:50.192Z,24.30
2022-11-28T06:07:50.205Z,25.60
2022-11-28T06:08:50.175Z,27.30
2022-11-28T06:09:50.128Z,20.90
2022-11-28T06:10:50.129Z,25.00
2022-11-28T06:11:50.120Z,25.10
2022-11-28T06:12:50.097Z,21.00
2022-11-28T06:13:50.079Z,24.20
2022-11-28T06:14:50.067Z,23.40
2022-11-28T06:15:50.073Z,25.40
2022-11-28T06:16:50.095Z,21.80
2022-11-28T06:17:50.053Z,22.90
2022-11-28T06:18:50.028Z,22.60
2022-11-28T06:19:50.117Z,25.10
2022-11-28T06:20:49.990Z,24.00
2022-11-28T06:21:50.051Z,25.90
2022-11-28T06:22:49.976Z,22.10
2022-11-28T06:23:49.913Z,24.40
2022-11-28T06:24:49.897Z,23.90
2022-11-28T06:25:50.044Z,26.40
2022-11-28T06:26:49.919Z,21.70
2022-11-28T06:27:49.937Z,23.90
2022-11-28T06:28:49.918Z,24.70
2022-11-28T06:29:49.834Z,25.50
2022-11-28T06:30:49.904Z,23.00
2022-11-28T06:31:49.890Z,27.50
2022-11-28T06:32:49.839Z,24.10
2022-11-28T06:33:49.825Z,26.30
2022-11-28T06:34:49.811Z,25.60
2022-11-28T06:35:49.787Z,26.10
2022-11-28T06:36:49.843Z,25.80
2022-11-28T06:37:49.816Z,26.50
2022-11-28T06:38:49.734Z,26.60
2022-11-28T06:39:49.765Z,22.00
2022-11-28T06:40:49.757Z,25.90
2022-11-28T06:41:49.755Z,26.30
2022-11-28T06:42:56.742Z,29.10
2022-11-28T06:43:49.680Z,25.40
2022-11-28T06:44:49.666Z,26.30
2022-11-28T06:45:49.718Z,30.00
2022-11-28T06:46:49.623Z,26.70
2022-11-28T06:47:49.638Z,28.30
2022-11-28T06:48:49.626Z,28.30
2022-11-28T06:49:49.605Z,30.40
2022-11-28T06:50:49.613Z,29.00
2022-11-28T06:51:49.587Z,32.70
2022-11-28T06:52:49.576Z,33.00
2022-11-28T06:53:49.555Z,32.10
2022-11-28T06:54:49.606Z,33.00
2022-11-28T06:55:49.522Z,37.20
2022-11-28T06:56:49.535Z,39.60
2022-11-28T06:57:50.316Z,32.00
2022-11-28T06:58:49.516Z,32.70
2022-11-28T06:59:49.458Z,27.60
2022-11-28T07:00:49.522Z,31.70
2022-11-28T07:01:49.553Z,30.30
2022-11-28T07:02:49.495Z,30.20
2022-11-28T07:03:49.466Z,31.20
2022-11-28T07:04:49.411Z,28.90
2022-11-28T07:05:49.419Z,31.20
2022-11-28T07:06:49.422Z,30.90
2022-11-28T07:07:54.233Z,28.60
2022-11-28T07:08:49.430Z,31.60
2022-11-28T07:09:49.325Z,30.50
2022-11-28T07:10:49.302Z,30.90
2022-11-28T07:11:49.306Z,33.90
2022-11-28T07:12:49.298Z,30.30
2022-11-28T07:13:49.771Z,33.00
2022-11-28T07:14:49.285Z,27.20
2022-11-28T07:15:49.272Z,28.30
2022-11-28T07:16:49.435Z,32.50
2022-11-28T07:17:49.262Z,30.80
2022-11-28T07:18:49.270Z,29.20
2022-11-28T07:19:53.549Z,28.10
2022-11-28T07:20:49.224Z,33.30
2022-11-28T07:21:49.194Z,30.80
2022-11-28T07:22:49.264Z,27.30
2022-11-28T07:23:49.204Z,28.90
2022-11-28T07:24:49.170Z,30.50
2022-11-28T07:25:49.176Z,29.60
2022-11-28T07:26:49.155Z,29.70
2022-11-28T07:27:49.146Z,28.90
2022-11-28T07:28:49.182Z,29.60
2022-11-28T07:29:49.136Z,27.60
2022-11-28T07:30:49.229Z,30.10
2022-11-28T07:31:49.137Z,31.50
2022-11-28T07:32:49.168Z,27.90
2022-11-28T07:33:49.111Z,27.60
2022-11-28T07:34:50.334Z,29.90
2022-11-28T07:35:49.170Z,26.90
2022-11-28T07:36:49.087Z,28.70
2022-11-28T07:37:49.129Z,28.10
2022-11-28T07:38:48.988Z,31.60
2022-11-28T07:39:48.977Z,26.90
2022-11-28T07:40:49.728Z,27.60
2022-11-28T07:41:49.036Z,32.10
2022-11-28T07:42:49.001Z,31.70
2022-11-28T07:43:49.050Z,32.20
2022-11-28T07:44:49.028Z,32.50
2022-11-28T07:46:00.496Z,32.30
2022-11-28T07:46:49.122Z,28.60
2022-11-28T07:47:48.987Z,30.70
2022-11-28T07:48:48.907Z,32.90
2022-11-28T07:49:48.822Z,32.40
2022-11-28T07:50:49.026Z,36.20
2022-11-28T07:51:48.915Z,33.10
2022-11-28T07:52:48.855Z,33.60
2022-11-28T07:53:48.997Z,30.80
2022-11-28T07:54:48.768Z,38.00
2022-11-28T07:55:48.836Z,32.10
2022-11-28T07:57:48.940Z,29.40
2022-11-28T07:58:48.723Z,31.00
2022-11-28T07:59:48.788Z,34.80
2022-11-28T08:00:48.908Z,33.90
2022-11-28T08:01:48.948Z,31.20
2022-11-28T08:02:48.964Z,31.50
2022-11-28T08:03:48.726Z,29.90
2022-11-28T08:04:53.945Z,31.30
2022-11-28T08:05:48.642Z,28.40
2022-11-28T08:06:48.634Z,26.60
2022-11-28T08:07:48.645Z,31.70
2022-11-28T08:08:48.706Z,32.20
2022-11-28T08:09:48.570Z,29.40
2022-11-28T08:10:49.300Z,31.20
2022-11-28T08:11:48.579Z,31.10
2022-11-28T08:12:48.519Z,29.20
2022-11-28T08:13:48.584Z,32.80
2022-11-28T08:14:48.550Z,31.30
2022-11-28T08:15:48.837Z,32.40
2022-11-28T08:16:48.521Z,29.90
2022-11-28T08:17:48.488Z,29.60
2022-11-28T08:18:48.495Z,26.50
2022-11-28T08:19:48.482Z,29.30
2022-11-28T08:20:48.448Z,29.00
2022-11-28T08:21:48.404Z,31.10
2022-11-28T08:22:48.388Z,32.60
2022-11-28T08:23:48.424Z,30.40
2022-11-28T08:24:48.359Z,28.70
2022-11-28T08:25:48.419Z,32.40
2022-11-28T08:26:48.370Z,27.50
2022-11-28T08:27:48.368Z,31.00
2022-11-28T08:28:48.404Z,31.50
2022-11-28T08:29:52.181Z,31.40
2022-11-28T08:30:48.385Z,30.70
2022-11-28T08:31:48.282Z,30.30
2022-11-28T08:32:48.250Z,28.50
2022-11-28T08:33:48.309Z,33.30
2022-11-28T08:34:48.305Z,29.30
2022-11-28T08:35:48.222Z,35.00
2022-11-28T08:36:48.211Z,30.70
2022-11-28T08:37:48.215Z,31.40
2022-11-28T08:39:03.241Z,32.60
2022-11-28T08:39:48.295Z,32.70
2022-11-28T08:40:48.182Z,25.30
2022-11-28T08:41:48.180Z,33.10
2022-11-28T08:42:48.154Z,30.20
2022-11-28T08:43:48.161Z,33.00
2022-11-28T08:44:48.140Z,31.10
2022-11-28T08:45:48.155Z,37.10
2022-11-28T08:46:48.597Z,29.50
2022-11-28T08:47:48.071Z,34.20
2022-11-28T08:48:48.101Z,34.30
2022-11-28T08:49:48.076Z,27.10
2022-11-28T08:50:48.324Z,28.60
2022-11-28T08:51:48.035Z,30.30
2022-11-28T08:52:48.002Z,27.70
2022-11-28T08:53:49.478Z,28.40
2022-11-28T08:54:47.948Z,32.40
2022-11-28T08:55:48.014Z,29.10
2022-11-28T08:56:47.941Z,35.00
2022-11-28T08:57:47.913Z,25.20
2022-11-28T08:58:47.893Z,29.10
2022-11-28T08:59:47.890Z,30.60
2022-11-28T09:00:47.889Z,31.00
2022-11-28T09:01:47.971Z,31.40
2022-11-28T09:02:47.845Z,29.00
2022-11-28T09:03:47.901Z,28.10
2022-11-28T09:04:48.847Z,27.20
2022-11-28T09:05:47.812Z,30.80
2022-11-28T09:06:47.847Z,28.20
2022-11-28T09:07:47.874Z,31.20
2022-11-28T09:08:47.824Z,27.10
2022-11-28T09:09:48.281Z,28.50
2022-11-28T09:10:47.769Z,25.90
2022-11-28T09:11:47.795Z,29.60
2022-11-28T09:12:47.756Z,26.30
2022-11-28T09:13:47.754Z,33.80
2022-11-28T09:14:47.706Z,38.30
2022-11-28T09:15:51.241Z,29.00
2022-11-28T09:16:47.715Z,28.90
2022-11-28T09:17:47.678Z,30.60
2022-11-28T09:18:47.651Z,28.40
2022-11-28T09:19:47.695Z,30.90
2022-11-28T09:20:47.652Z,27.80
2022-11-28T09:21:47.621Z,29.70
2022-11-28T09:22:47.689Z,30.30
2022-11-28T09:23:47.613Z,28.40
2022-11-28T09:24:47.576Z,29.20
2022-11-28T09:25:47.568Z,31.60
2022-11-28T09:26:47.607Z,32.50
2022-11-28T09:27:47.569Z,33.10
2022-11-28T09:28:47.549Z,32.10
2022-11-28T09:29:47.524Z,31.10
2022-11-28T09:30:47.577Z,30.00
2022-11-28T09:31:47.833Z,36.50
2022-11-28T09:32:47.485Z,35.40
2022-11-28T09:33:47.470Z,37.30
2022-11-28T09:34:47.460Z,30.30
2022-11-28T09:35:47.455Z,36.30
2022-11-28T09:36:47.490Z,32.30
2022-11-28T09:37:47.405Z,30.90
2022-11-28T09:38:47.421Z,34.20
2022-11-28T09:40:11.656Z,34.30
2022-11-28T09:40:47.395Z,32.60
2022-11-28T09:41:47.346Z,33.30
2022-11-28T09:42:47.350Z,31.70
2022-11-28T09:43:52.019Z,37.70
2022-11-28T09:44:47.309Z,35.30
2022-11-28T09:45:47.340Z,31.40
2022-11-28T09:46:47.451Z,30.80
2022-11-28T09:47:47.290Z,32.00
2022-11-28T09:48:47.245Z,32.30
2022-11-28T09:49:47.623Z,31.70
2022-11-28T09:50:47.226Z,33.80
2022-11-28T09:51:47.227Z,32.30
2022-11-28T09:52:47.320Z,33.30
2022-11-28T09:53:47.202Z,31.70
2022-11-28T09:54:47.167Z,29.50
2022-11-28T09:55:47.174Z,36.10
2022-11-28T09:56:47.147Z,33.20
2022-11-28T09:57:47.160Z,36.80
2022-11-28T09:58:47.111Z,31.10
2022-11-28T09:59:47.115Z,32.80
2022-11-28T10:00:50.244Z,41.40
2022-11-28T10:01:47.112Z,31.70
2022-11-28T10:02:47.107Z,36.80
2022-11-28T10:03:47.189Z,34.70
2022-11-28T10:04:47.093Z,33.60
2022-11-28T10:05:47.025Z,34.40
2022-11-28T10:06:47.026Z,35.80
2022-11-28T10:07:50.976Z,30.10
2022-11-28T10:08:47.018Z,34.10
2022-11-28T10:09:47.003Z,32.30
2022-11-28T10:10:47.007Z,32.50
2022-11-28T10:11:46.995Z,32.70
2022-11-28T10:12:46.951Z,34.10
2022-11-28T10:14:07.221Z,30.60
2022-11-28T10:14:46.921Z,35.00
2022-11-28T10:15:46.912Z,34.30
2022-11-28T10:16:47.066Z,36.00
2022-11-28T10:17:46.913Z,38.10
2022-11-28T10:18:46.871Z,31.30
2022-11-28T10:19:54.191Z,34.30
2022-11-28T10:20:46.854Z,34.60
2022-11-28T10:21:46.827Z,30.40
2022-11-28T10:22:46.806Z,32.50
2022-11-28T10:23:46.819Z,35.90
2022-11-28T10:24:46.793Z,32.80
2022-11-28T10:25:46.762Z,34.10
2022-11-28T10:26:46.800Z,33.40
2022-11-28T10:27:46.740Z,32.60
2022-11-28T10:28:46.720Z,23.90
2022-11-28T10:29:46.738Z,33.90
2022-11-28T10:30:46.841Z,35.70
2022-11-28T10:31:46.688Z,33.20
2022-11-28T10:32:46.718Z,35.40
2022-11-28T10:33:46.690Z,35.60
2022-11-28T10:34:46.663Z,29.60
2022-11-28T10:35:46.655Z,35.30
2022-11-28T10:36:46.618Z,41.20
2022-11-28T10:37:46.759Z,34.90
2022-11-28T10:38:46.612Z,36.10
2022-11-28T10:39:46.615Z,38.70
2022-11-28T10:40:46.585Z,39.30
2022-11-28T10:41:46.577Z,37.60
2022-11-28T10:42:46.604Z,35.10
2022-11-28T10:43:46.552Z,38.50
2022-11-28T10:44:46.521Z,34.00
2022-11-28T10:45:46.546Z,38.40
2022-11-28T10:46:46.507Z,36.60
2022-11-28T10:47:46.502Z,35.10
2022-11-28T10:48:46.495Z,25.50
2022-11-28T10:49:46.484Z,31.50
2022-11-28T10:50:46.439Z,36.10
2022-11-28T10:51:46.444Z,39.30
2022-11-28T10:52:46.425Z,32.90
2022-11-28T10:53:46.418Z,33.90
2022-11-28T10:54:46.425Z,32.90
2022-11-28T10:55:46.413Z,30.60
2022-11-28T10:56:46.413Z,35.90
2022-11-28T10:57:46.348Z,33.70
2022-11-28T10:58:46.346Z,29.90
2022-11-28T10:59:46.364Z,34.10
2022-11-28T11:00:46.333Z,34.80
2022-11-28T11:01:50.170Z,36.40
2022-11-28T11:02:46.286Z,37.20
2022-11-28T11:03:46.298Z,38.20
2022-11-28T11:04:46.329Z,34.60
2022-11-28T11:05:46.253Z,37.10
2022-11-28T11:07:06.843Z,35.70
2022-11-28T11:07:46.293Z,36.40
2022-11-28T11:08:46.220Z,34.80
2022-11-28T11:09:46.386Z,32.30
2022-11-28T11:10:46.221Z,31.50
2022-11-28T11:11:46.187Z,31.10
2022-11-28T11:12:46.166Z,33.70
2022-11-28T11:13:46.162Z,34.20
2022-11-28T11:14:46.132Z,35.80
2022-11-28T11:15:46.299Z,34.30
2022-11-28T11:16:46.137Z,31.70
2022-11-28T11:17:46.109Z,35.90
2022-11-28T11:18:46.069Z,35.20
2022-11-28T11:19:46.179Z,32.20
2022-11-28T11:20:46.058Z,30.80
2022-11-28T11:21:46.037Z,31.00
2022-11-28T11:22:46.240Z,31.40
2022-11-28T11:23:46.026Z,29.40
2022-11-28T11:24:46.006Z,29.70
2022-11-28T11:25:46.000Z,29.40
2022-11-28T11:26:46.027Z,30.50
2022-11-28T11:27:46.012Z,30.70
2022-11-28T11:28:45.946Z,27.70
2022-11-28T11:29:49.251Z,29.60
2022-11-28T11:30:45.959Z,29.60
2022-11-28T11:31:45.916Z,29.70
2022-11-28T11:32:50.076Z,34.90
2022-11-28T11:33:45.897Z,29.00
2022-11-28T11:34:45.906Z,27.60
2022-11-28T11:35:45.899Z,29.40
2022-11-28T11:36:45.884Z,30.60
2022-11-28T11:37:45.878Z,31.50
2022-11-28T11:38:45.858Z,30.20
2022-11-28T11:39:45.872Z,30.20
2022-11-28T11:40:45.889Z,27.80
2022-11-28T11:41:45.832Z,26.80
2022-11-28T11:42:45.816Z,25.90
2022-11-28T11:43:45.806Z,28.00
2022-11-28T11:44:45.852Z,27.70
2022-11-28T11:45:51.159Z,29.40
2022-11-28T11:46:45.847Z,26.50
2022-11-28T11:47:45.849Z,31.50
2022-11-28T11:48:45.833Z,28.40
2022-11-28T11:49:46.036Z,27.90
2022-11-28T11:50:45.792Z,29.80
2022-11-28T11:51:45.843Z,27.70
2022-11-28T11:52:45.838Z,27.40
2022-11-28T11:53:45.813Z,26.20
2022-11-28T11:54:45.681Z,28.80
2022-11-28T11:55:45.609Z,24.90
2022-11-28T11:56:45.636Z,30.40
2022-11-28T11:57:45.629Z,25.10
2022-11-28T11:58:45.581Z,23.60
2022-11-28T11:59:45.755Z,25.10
2022-11-28T12:00:45.558Z,26.40
2022-11-28T12:01:45.578Z,25.10
2022-11-28T12:02:45.646Z,25.90
2022-11-28T12:03:45.608Z,27.90
2022-11-28T12:04:48.949Z,26.40
2022-11-28T12:06:12.212Z,25.50
2022-11-28T12:06:45.507Z,25.50
2022-11-28T12:07:45.496Z,27.20
2022-11-28T12:08:45.428Z,27.40
2022-11-28T12:09:45.914Z,22.80
2022-11-28T12:10:45.415Z,26.20
2022-11-28T12:11:47.021Z,23.80
2022-11-28T12:12:45.429Z,25.60
2022-11-28T12:13:45.409Z,25.90
2022-11-28T12:14:45.662Z,29.30
2022-11-28T12:15:45.410Z,24.10
2022-11-28T12:16:45.645Z,22.00
2022-11-28T12:17:50.695Z,28.40
2022-11-28T12:18:45.333Z,24.00
2022-11-28T12:19:45.342Z,31.20
2022-11-28T12:20:45.325Z,26.30
2022-11-28T12:21:45.279Z,26.50
2022-11-28T12:22:45.280Z,24.50
2022-11-28T12:23:45.362Z,23.80
2022-11-28T12:24:45.455Z,26.30
2022-11-28T12:25:45.286Z,23.90
2022-11-28T12:26:45.246Z,23.70
2022-11-28T12:27:45.203Z,24.80
2022-11-28T12:28:45.200Z,22.80
2022-11-28T12:29:45.430Z,25.40
2022-11-28T12:30:45.231Z,25.50
2022-11-28T12:31:45.195Z,23.90
2022-11-28T12:32:45.164Z,21.50
2022-11-28T12:33:45.244Z,23.50
2022-11-28T12:34:45.138Z,23.50
2022-11-28T12:35:45.282Z,23.60
2022-11-28T12:36:45.159Z,26.50
2022-11-28T12:38:09.829Z,23.80
2022-11-28T12:38:45.074Z,28.30
2022-11-28T12:39:45.582Z,25.20
2022-11-28T12:40:45.144Z,28.20
2022-11-28T12:41:45.107Z,26.90
2022-11-28T12:42:45.159Z,26.30
2022-11-28T12:43:45.061Z,28.00
2022-11-28T12:44:45.846Z,26.90
2022-11-28T12:45:45.077Z,25.10
2022-11-28T12:46:45.139Z,28.40
2022-11-28T12:47:45.009Z,26.30
2022-11-28T12:48:50.120Z,28.30
2022-11-28T12:49:45.191Z,25.80
2022-11-28T12:50:45.045Z,26.80
2022-11-28T12:51:44.912Z,25.40
2022-11-28T12:52:44.910Z,25.40
2022-11-28T12:53:45.001Z,29.20
2022-11-28T12:54:44.958Z,27.80